createdAt,value
2014-09-27T00:02:53.446Z,19.5
2014-09-27T00:10:54.041Z,19.5
2014-09-27T00:18:54.633Z,19.5
2014-09-27T00:26:55.217Z,19.5
2014-09-27T00:33:55.838Z,19.5
2014-09-27T00:41:56.476Z,19.5
2014-09-27T00:50:57.138Z,19.5
2014-09-27T07:59:28.560Z,19.2
2014-09-27T08:07:29.155Z,19.3
2014-09-27T08:15:29.731Z,19.2
2014-09-27T08:25:30.421Z,19.2
2014-09-27T08:35:31.099Z,19.2
2014-09-27T08:44:31.741Z,19.2
2014-09-27T08:51:32.269Z,19.2
2014-09-27T08:58:32.799Z,19.2
2014-09-27T09:05:33.342Z,19.2
2014-09-27T09:12:36.886Z,19.2
2014-09-27T09:18:34.357Z,19.2
2014-09-27T09:27:34.983Z,19.2
2014-09-27T09:36:35.862Z,19.2
2014-09-27T09:43:36.615Z,19.1
2014-09-27T09:52:37.304Z,19.1
2014-09-27T09:59:37.843Z,19.1
2014-09-27T10:09:38.536Z,19.1
2014-09-27T10:18:39.163Z,19.2
2014-09-27T10:24:39.645Z,19.2
2014-09-27T10:32:40.237Z,19.2
2014-09-27T10:39:40.766Z,19.2
2014-09-27T10:48:41.410Z,19.2
2014-09-27T10:54:41.890Z,19.2
2014-09-27T11:03:42.531Z,19.2
2014-09-27T11:12:43.159Z,19.3
2014-09-27T11:20:43.781Z,19.3
2014-09-27T11:28:44.344Z,19.3
2014-09-27T11:37:44.987Z,19.3
2014-09-27T11:46:45.629Z,19.4
2014-09-27T11:54:46.209Z,19.4
2014-09-27T12:03:46.849Z,19.4
2014-09-27T12:12:47.492Z,19.4
2014-09-27T12:20:48.087Z,19.5
2014-09-27T12:29:48.728Z,19.4
2014-09-27T12:35:49.224Z,19.4
2014-09-27T12:44:49.852Z,19.4
2014-09-27T12:52:50.444Z,19.4
2014-09-27T13:00:51.038Z,19.4
2014-09-27T13:09:51.681Z,19.4
2014-09-27T13:16:52.225Z,19.4
2014-09-27T13:24:52.804Z,19.4
2014-09-27T13:32:53.397Z,19.4
2014-09-27T13:38:53.876Z,19.4
2014-09-27T13:46:54.471Z,19.4
2014-09-27T13:56:55.160Z,19.6
2014-09-27T14:05:55.803Z,19.6
2014-09-27T14:12:56.349Z,19.6
2014-09-27T14:21:56.990Z,19.7
2014-09-27T14:29:57.584Z,19.7
2014-09-27T14:38:58.226Z,19.7
2014-09-27T14:46:58.821Z,19.8
2014-09-27T14:56:59.511Z,19.9
2014-09-27T15:06:00.152Z,20
2014-09-27T15:16:00.846Z,20.1
2014-09-27T15:25:01.487Z,20.1
2014-09-27T15:33:02.079Z,20.1
2014-09-27T15:43:02.804Z,20.1
2014-09-27T15:50:03.331Z,20
2014-09-27T15:58:03.926Z,20
2014-09-27T16:07:04.568Z,19.9
2014-09-27T16:16:05.210Z,19.9
2014-09-27T16:25:05.853Z,19.9
2014-09-27T16:34:06.495Z,19.8
2014-09-27T20:09:08.821Z,19.6
2014-09-27T20:17:09.416Z,19.6
2014-09-27T20:25:09.994Z,19.6
2014-09-27T20:34:10.635Z,19.6
2014-09-27T20:42:11.214Z,19.6
2014-09-27T20:49:11.757Z,19.6
2014-09-27T20:56:12.287Z,19.6
2014-09-27T21:03:12.832Z,19.6
2014-09-27T21:10:13.406Z,19.6
2014-09-27T21:17:13.952Z,19.6
2014-09-27T21:26:14.580Z,19.6
2014-09-27T21:35:15.221Z,19.6
2014-09-27T21:41:15.716Z,19.6
2014-09-27T21:49:16.296Z,19.5
2014-09-27T21:58:16.936Z,19.6
2014-09-27T22:05:17.467Z,19.5
2014-09-27T22:11:17.963Z,19.5
2014-09-27T22:19:18.541Z,19.5
2014-09-27T22:28:19.182Z,19.5
2014-09-27T22:36:19.761Z,19.5
2014-09-27T22:45:20.403Z,19.5
2014-09-27T22:53:20.981Z,19.5
2014-09-27T23:00:21.527Z,19.5
2014-09-27T23:06:22.006Z,19.5
2014-09-27T23:14:22.599Z,19.5
2014-09-27T23:21:23.129Z,19.5
2014-09-27T23:29:23.721Z,19.4
2014-09-27T23:36:24.251Z,19.4
2014-09-27T23:44:24.845Z,19.4
2014-09-27T23:53:25.470Z,19.4
